createdAt,value
2023-04-15T00:00:39.324Z,3.6201
2023-04-15T00:01:43.276Z,4.5603
2023-04-15T00:02:47.318Z,4.3729
2023-04-15T00:03:51.460Z,4.5919
2023-04-15T00:04:55.711Z,4.1727
2023-04-15T00:05:59.577Z,3.3561
2023-04-15T00:07:03.699Z,3.2091
2023-04-15T00:08:07.584Z,2.8985
2023-04-15T00:09:11.469Z,3.1420
2023-04-15T00:10:15.365Z,4.3868
2023-04-15T00:11:19.269Z,4.0352
2023-04-15T00:12:23.155Z,3.3705
2023-04-15T00:13:27.055Z,3.7966
2023-04-15T00:14:31.170Z,3.5894
2023-04-15T00:15:35.064Z,5.1196
2023-04-15T00:16:39.072Z,3.7182
2023-04-15T00:17:43.015Z,4.2769
2023-04-15T00:18:46.914Z,4.1329
2023-04-15T00:19:50.783Z,4.3004
2023-04-15T00:20:54.692Z,3.8153
2023-04-15T00:21:58.816Z,4.1689
2023-04-15T00:23:02.684Z,3.6861
2023-04-15T00:24:06.557Z,3.4472
2023-04-15T00:25:10.479Z,4.4921
2023-04-15T00:26:14.377Z,3.6279
2023-04-15T00:27:18.255Z,3.1682
2023-04-15T00:28:22.141Z,3.9980
2023-04-15T00:29:26.051Z,3.9104
2023-04-15T00:30:29.959Z,3.5431
2023-04-15T00:31:33.972Z,4.3596
2023-04-15T00:32:37.926Z,3.8714
2023-04-15T00:33:41.783Z,4.2538
2023-04-15T00:34:45.924Z,4.6545
2023-04-15T00:35:49.805Z,3.1996
2023-04-15T00:36:53.933Z,4.3894
2023-04-15T00:37:57.809Z,3.3348
2023-04-15T00:39:01.843Z,3.9586
2023-04-15T00:40:05.821Z,4.6919
2023-04-15T00:41:09.705Z,4.3742
2023-04-15T00:42:13.605Z,3.9147
2023-04-15T00:43:17.487Z,4.3449
2023-04-15T00:44:21.608Z,3.0873
2023-04-15T00:45:25.470Z,4.2207
2023-04-15T00:46:29.381Z,3.6823
2023-04-15T00:47:33.276Z,4.1685
2023-04-15T00:48:37.167Z,4.2813
2023-04-15T00:49:41.044Z,3.0414
2023-04-15T00:50:44.968Z,3.6390
2023-04-15T00:51:48.839Z,3.4731
2023-04-15T00:52:52.753Z,4.1376
2023-04-15T00:53:56.627Z,5.0222
2023-04-15T00:55:00.775Z,2.8933
2023-04-15T00:56:04.681Z,4.5256
2023-04-15T00:57:08.561Z,4.6312
2023-04-15T00:58:12.464Z,4.0496
2023-04-15T00:59:16.342Z,3.6459
2023-04-15T01:00:20.250Z,3.9310
2023-04-15T01:01:24.466Z,4.3643
2023-04-15T01:02:28.519Z,3.7668
2023-04-15T01:03:32.652Z,4.5658
2023-04-15T01:04:36.848Z,3.7220
2023-04-15T01:05:40.758Z,3.3300
2023-04-15T01:06:41.199Z,4.4550
2023-04-15T01:07:45.073Z,3.6208
2023-04-15T01:08:48.956Z,4.1214
2023-04-15T01:09:52.841Z,3.9293
2023-04-15T01:10:56.736Z,3.2022
2023-04-15T01:12:00.624Z,4.7443
2023-04-15T01:13:04.535Z,4.2659
2023-04-15T01:14:08.418Z,3.9521
2023-04-15T01:15:12.333Z,3.9231
2023-04-15T01:16:16.269Z,4.3584
2023-04-15T01:17:20.191Z,3.5899
2023-04-15T01:18:24.052Z,4.1163
2023-04-15T01:19:27.952Z,4.2717
2023-04-15T01:20:31.833Z,4.3115
2023-04-15T01:21:35.979Z,3.8861
2023-04-15T01:22:39.867Z,3.7504
2023-04-15T01:23:43.759Z,4.7641
2023-04-15T01:24:47.649Z,4.2924
2023-04-15T01:25:51.543Z,5.4827
2023-04-15T01:26:55.447Z,4.3028
2023-04-15T01:27:59.337Z,4.8551
2023-04-15T01:29:03.241Z,4.4580
2023-04-15T01:30:07.116Z,3.6706
2023-04-15T01:31:11.089Z,5.3199
2023-04-15T01:32:15.007Z,4.3900
2023-04-15T01:33:18.889Z,5.3402
2023-04-15T01:34:22.783Z,5.2265
2023-04-15T01:35:26.664Z,4.0626
2023-04-15T01:36:30.573Z,4.5922
2023-04-15T01:37:34.697Z,4.5115
2023-04-15T01:38:38.587Z,4.8423
2023-04-15T01:39:42.478Z,4.8248
2023-04-15T01:40:46.382Z,5.4070
2023-04-15T01:41:50.491Z,4.5975
2023-04-15T01:42:54.401Z,4.9796
2023-04-15T01:43:58.278Z,4.5455
2023-04-15T01:45:02.200Z,4.4146
2023-04-15T01:46:06.070Z,4.6571
2023-04-15T01:47:10.191Z,4.1672
2023-04-15T01:48:14.092Z,4.8892
2023-04-15T01:49:17.985Z,4.6504
2023-04-15T01:50:21.888Z,5.1043
2023-04-15T01:51:25.761Z,5.5724
2023-04-15T01:52:29.903Z,3.8510
2023-04-15T01:53:33.786Z,3.2161
2023-04-15T01:54:37.714Z,4.0822
2023-04-15T01:55:41.589Z,4.4051
2023-04-15T01:56:41.927Z,4.2373
2023-04-15T01:57:45.818Z,4.3519
2023-04-15T01:58:49.726Z,3.9372
2023-04-15T01:59:53.612Z,3.4778
2023-04-15T02:00:57.586Z,4.1200
2023-04-15T02:02:01.462Z,3.9443
2023-04-15T02:03:05.577Z,4.2264
2023-04-15T02:04:05.822Z,5.2490
2023-04-15T02:06:14.427Z,4.9506
2023-04-15T02:07:18.590Z,4.8810
2023-04-15T02:08:23.007Z,4.7713
2023-04-15T02:09:26.912Z,4.2289
2023-04-15T02:10:31.687Z,4.6176
2023-04-15T02:11:35.568Z,4.5041
2023-04-15T02:12:39.454Z,5.5164
2023-04-15T02:13:43.373Z,4.9113
2023-04-15T02:14:47.262Z,5.3767
2023-04-15T02:15:51.150Z,5.3982
2023-04-15T02:16:55.287Z,4.5687
2023-04-15T02:17:59.204Z,3.7364
2023-04-15T02:19:03.399Z,4.8881
2023-04-15T02:20:07.247Z,4.2434
2023-04-15T02:21:11.110Z,3.4141
2023-04-15T02:22:14.993Z,5.2787
2023-04-15T02:23:18.891Z,5.2481
2023-04-15T02:24:22.807Z,4.3598
2023-04-15T02:25:26.689Z,4.5963
2023-04-15T02:26:30.600Z,4.2205
2023-04-15T02:27:34.508Z,4.3214
2023-04-15T02:28:38.421Z,3.9333
2023-04-15T02:29:42.303Z,4.6538
2023-04-15T02:30:46.189Z,3.7862
2023-04-15T02:31:50.125Z,4.4942
2023-04-15T02:32:54.058Z,3.2872
2023-04-15T02:33:57.948Z,3.2936
2023-04-15T02:35:01.854Z,4.7661
2023-04-15T02:36:05.736Z,4.4365
2023-04-15T02:37:06.147Z,5.3340
2023-04-15T02:38:10.031Z,5.1024
2023-04-15T02:39:13.917Z,4.4583
2023-04-15T02:40:17.805Z,3.9555
2023-04-15T02:41:21.705Z,4.9108
2023-04-15T02:42:25.614Z,5.4352
2023-04-15T02:43:29.501Z,4.6336
2023-04-15T02:44:33.627Z,4.2227
2023-04-15T02:45:37.563Z,4.9090
2023-04-15T02:46:41.691Z,4.0220
2023-04-15T02:47:45.590Z,5.2747
2023-04-15T02:48:49.463Z,4.3802
2023-04-15T02:49:53.350Z,4.4132
2023-04-15T02:50:57.230Z,5.3501
2023-04-15T02:52:01.149Z,4.3411
2023-04-15T02:53:05.026Z,4.3687
2023-04-15T02:54:08.929Z,5.3289
2023-04-15T02:55:12.866Z,5.5147
2023-04-15T02:56:16.713Z,4.1193
2023-04-15T02:57:20.621Z,4.5275
2023-04-15T02:58:24.507Z,4.6247
2023-04-15T02:59:28.735Z,4.1614
2023-04-15T03:00:32.636Z,4.0883
2023-04-15T03:01:36.796Z,5.4013
2023-04-15T03:02:40.737Z,4.5290
2023-04-15T03:03:44.742Z,4.6073
2023-04-15T03:04:48.710Z,5.4167
2023-04-15T03:05:52.618Z,4.4690
2023-04-15T03:06:56.478Z,3.8866
2023-04-15T03:08:00.379Z,4.3207
2023-04-15T03:09:04.278Z,4.0368
2023-04-15T03:10:08.156Z,5.4571
2023-04-15T03:11:12.062Z,4.0155
2023-04-15T03:12:15.945Z,5.1540
2023-04-15T03:13:19.846Z,3.8578
2023-04-15T03:14:23.716Z,3.9238
2023-04-15T03:15:27.668Z,4.4609
2023-04-15T03:16:31.535Z,4.3970
2023-04-15T03:17:35.453Z,3.9889
2023-04-15T03:18:39.319Z,4.6487
2023-04-15T03:19:43.232Z,5.7349
2023-04-15T03:20:47.184Z,5.1368
2023-04-15T03:21:51.030Z,4.4164
2023-04-15T03:22:54.921Z,5.5462
2023-04-15T03:23:58.815Z,4.4375
2023-04-15T03:25:02.710Z,4.4968
2023-04-15T03:26:06.810Z,5.1448
2023-04-15T03:27:10.710Z,5.0062
2023-04-15T03:28:14.614Z,4.6723
2023-04-15T03:29:14.979Z,5.2903
2023-04-15T03:30:18.875Z,4.5971
2023-04-15T03:31:23.062Z,4.5947
2023-04-15T03:32:27.005Z,4.1283
2023-04-15T03:33:30.842Z,3.9644
2023-04-15T03:34:34.948Z,4.5235
2023-04-15T03:35:38.836Z,4.7446
2023-04-15T03:36:42.723Z,3.4261
2023-04-15T03:37:46.597Z,5.0483
2023-04-15T03:38:50.522Z,5.8597
2023-04-15T03:39:54.400Z,4.4588
2023-04-15T03:40:58.274Z,5.2154
2023-04-15T03:42:02.337Z,4.8259
2023-04-15T03:43:06.225Z,4.5461
2023-04-15T03:44:10.498Z,4.6790
2023-04-15T03:45:14.403Z,6.0492
2023-04-15T03:46:18.330Z,5.0993
2023-04-15T03:47:22.223Z,4.9015
2023-04-15T03:48:26.087Z,4.5083
2023-04-15T03:49:30.282Z,5.1175
2023-04-15T03:50:34.170Z,5.2738
2023-04-15T03:51:38.043Z,4.2623
2023-04-15T03:52:41.958Z,4.7519
2023-04-15T03:53:45.860Z,5.2508
2023-04-15T03:54:49.749Z,4.6913
2023-04-15T03:55:53.644Z,4.4934
2023-04-15T03:56:57.528Z,4.6120
2023-04-15T03:58:01.431Z,5.3167
2023-04-15T03:59:05.336Z,5.9071
2023-04-15T04:00:09.240Z,4.8902
2023-04-15T04:01:13.144Z,4.2240
2023-04-15T04:02:17.121Z,4.8103
2023-04-15T04:03:21.235Z,3.9930
2023-04-15T04:04:25.406Z,5.2553
2023-04-15T04:05:29.280Z,4.1886
2023-04-15T04:06:33.189Z,3.8224
2023-04-15T04:07:37.065Z,4.7357
2023-04-15T04:08:40.937Z,4.9579
2023-04-15T04:09:46.630Z,4.3233
2023-04-15T04:10:45.768Z,4.0908
2023-04-15T04:11:50.412Z,4.5243
2023-04-15T04:12:54.306Z,4.9694
2023-04-15T04:13:58.187Z,4.6642
2023-04-15T04:15:02.082Z,3.7293
2023-04-15T04:16:02.301Z,2.9004
2023-04-15T04:17:06.368Z,4.6358
2023-04-15T04:18:10.289Z,3.7886
2023-04-15T04:19:14.387Z,4.2996
2023-04-15T04:20:18.260Z,3.6987
2023-04-15T04:21:22.154Z,3.4452
2023-04-15T04:22:26.039Z,3.4485
2023-04-15T04:23:29.948Z,3.0978
2023-04-15T04:24:34.053Z,2.5594
2023-04-15T04:25:37.955Z,2.6146
2023-04-15T04:26:42.055Z,2.7372
2023-04-15T04:27:45.996Z,2.3208
2023-04-15T04:28:49.870Z,3.0092
2023-04-15T04:29:53.769Z,3.0473
2023-04-15T04:30:57.659Z,2.4960
2023-04-15T04:32:01.611Z,2.7988
2023-04-15T04:33:05.583Z,1.8264
2023-04-15T04:34:09.706Z,2.4161
2023-04-15T04:35:13.596Z,2.0487
2023-04-15T04:36:17.463Z,2.5702
2023-04-15T04:37:21.362Z,2.9624
2023-04-15T04:38:25.277Z,3.6445
2023-04-15T04:39:29.373Z,2.1378
2023-04-15T04:40:33.264Z,2.6426
2023-04-15T04:41:37.131Z,1.9520
2023-04-15T04:42:41.082Z,2.5608
2023-04-15T04:43:45.189Z,2.0921
2023-04-15T04:44:49.058Z,1.5958
2023-04-15T04:45:52.969Z,1.8801
2023-04-15T04:46:57.050Z,2.6590
2023-04-15T04:48:01.042Z,2.2705
2023-04-15T04:49:05.084Z,1.9496
2023-04-15T04:50:09.001Z,2.1172
2023-04-15T04:51:12.881Z,2.1204
2023-04-15T04:52:16.783Z,1.6858
2023-04-15T04:53:20.670Z,1.4657
2023-04-15T04:54:24.584Z,2.1565
2023-04-15T04:55:28.474Z,1.7813
2023-04-15T04:56:32.358Z,1.1912
2023-04-15T04:57:36.257Z,1.8699
2023-04-15T04:58:36.628Z,2.0881
2023-04-15T04:59:40.529Z,1.9768
2023-04-15T05:00:44.422Z,1.8608
2023-04-15T05:01:48.431Z,1.5890
2023-04-15T05:02:52.609Z,1.7765
2023-04-15T05:03:56.656Z,1.4944
2023-04-15T05:05:00.641Z,1.6402
2023-04-15T05:06:04.521Z,2.2024
2023-04-15T05:07:08.457Z,2.3227
2023-04-15T05:08:12.348Z,1.8474
2023-04-15T05:09:16.428Z,1.9303
2023-04-15T05:10:20.327Z,1.7450
2023-04-15T05:11:24.220Z,1.4939
2023-04-15T05:12:28.101Z,1.7883
2023-04-15T05:13:31.977Z,1.3914
2023-04-15T05:14:35.886Z,2.3081
2023-04-15T05:15:39.879Z,1.8053
2023-04-15T05:16:43.787Z,1.8748
2023-04-15T05:17:47.750Z,1.5051
2023-04-15T05:18:51.611Z,1.3111
2023-04-15T05:19:55.522Z,1.6594
2023-04-15T05:20:59.427Z,1.7014
2023-04-15T05:22:03.306Z,2.3245
2023-04-15T05:23:07.183Z,1.9151
2023-04-15T05:24:11.077Z,1.5502
2023-04-15T05:25:14.988Z,1.7626
2023-04-15T05:26:19.146Z,1.4178
2023-04-15T05:27:23.045Z,1.6473
2023-04-15T05:28:27.183Z,1.5452
2023-04-15T05:29:31.073Z,1.9110
2023-04-15T05:30:34.975Z,1.0965
2023-04-15T05:31:38.896Z,1.4771
2023-04-15T05:32:42.777Z,1.7025
2023-04-15T05:33:46.659Z,1.0945
2023-04-15T05:34:50.559Z,1.4322
2023-04-15T05:35:54.450Z,1.1632
2023-04-15T05:36:58.363Z,1.6146
2023-04-15T05:38:02.243Z,2.1813
2023-04-15T05:39:06.155Z,1.5239
2023-04-15T05:40:10.048Z,1.5200
2023-04-15T05:41:13.913Z,1.8059
2023-04-15T05:42:17.841Z,1.4641
2023-04-15T05:43:23.268Z,1.4376
2023-04-15T05:44:27.174Z,1.3429
2023-04-15T05:45:31.058Z,2.2190
2023-04-15T05:46:35.233Z,2.0893
2023-04-15T05:47:39.154Z,1.4549
2023-04-15T05:48:43.024Z,1.1533
2023-04-15T05:49:46.916Z,1.5863
2023-04-15T05:50:50.823Z,1.3530
2023-04-15T05:51:54.736Z,0.9231
2023-04-15T05:52:58.642Z,1.8314
2023-04-15T05:54:02.747Z,1.1215
2023-04-15T05:55:06.621Z,1.1521
2023-04-15T05:56:10.754Z,1.0299
2023-04-15T05:57:14.638Z,1.8950
2023-04-15T05:58:18.532Z,1.5632
2023-04-15T05:59:22.412Z,1.2851
2023-04-15T06:00:26.293Z,0.8680
2023-04-15T06:01:30.190Z,1.3948
2023-04-15T06:02:34.126Z,1.1781
2023-04-15T06:03:38.181Z,1.9595
2023-04-15T06:04:42.116Z,1.3889
2023-04-15T06:05:45.999Z,1.2783
2023-04-15T06:06:49.910Z,1.7158
2023-04-15T06:07:53.817Z,1.8097
2023-04-15T06:08:57.720Z,1.9210
2023-04-15T06:10:01.648Z,2.0335
2023-04-15T06:11:05.755Z,1.8804
2023-04-15T06:12:09.641Z,1.7882
2023-04-15T06:13:13.858Z,1.0871
2023-04-15T06:14:17.742Z,1.7270
2023-04-15T06:15:21.641Z,1.7317
2023-04-15T06:16:25.576Z,2.3493
2023-04-15T06:17:29.436Z,1.4997
2023-04-15T06:18:33.316Z,1.4319
2023-04-15T06:19:37.215Z,1.5118
2023-04-15T06:20:41.102Z,1.2127
2023-04-15T06:21:45.016Z,1.6006
2023-04-15T06:22:48.891Z,1.3704
2023-04-15T06:23:53.023Z,1.4721
2023-04-15T06:24:56.899Z,1.9327
2023-04-15T06:26:01.116Z,1.7610
2023-04-15T06:27:05.031Z,2.2446
2023-04-15T06:28:08.917Z,1.3425
2023-04-15T06:29:12.822Z,1.2075
2023-04-15T06:30:16.703Z,2.0579
2023-04-15T06:31:17.129Z,1.8178
2023-04-15T06:32:21.050Z,2.3081
2023-04-15T06:33:24.937Z,1.3695
2023-04-15T06:34:28.807Z,1.3789
2023-04-15T06:35:32.719Z,1.1064
2023-04-15T06:36:36.605Z,1.8681
2023-04-15T06:37:40.521Z,1.4792
2023-04-15T06:38:44.393Z,1.6736
2023-04-15T06:39:48.319Z,1.3237
2023-04-15T06:40:52.401Z,1.5953
2023-04-15T06:41:56.302Z,2.1030
2023-04-15T06:43:00.179Z,1.0757
2023-04-15T06:44:04.301Z,2.1793
2023-04-15T06:45:08.205Z,1.2740
2023-04-15T06:46:12.118Z,1.8078
2023-04-15T06:47:16.071Z,1.7182
2023-04-15T06:48:19.962Z,2.0012
2023-04-15T06:49:23.833Z,1.6133
2023-04-15T06:50:27.750Z,1.5415
2023-04-15T06:51:31.628Z,2.3091
2023-04-15T06:52:35.531Z,2.2019
2023-04-15T06:53:39.412Z,2.4004
2023-04-15T06:54:43.292Z,1.6189
2023-04-15T06:55:47.173Z,1.4368
2023-04-15T06:56:51.078Z,1.6756
2023-04-15T06:57:54.988Z,1.1167
2023-04-15T06:58:58.900Z,1.3141
2023-04-15T07:00:02.750Z,1.5545
2023-04-15T07:01:06.725Z,1.7198
2023-04-15T07:02:10.670Z,1.7788
2023-04-15T07:03:14.642Z,1.7759
2023-04-15T07:04:18.588Z,1.5132
2023-04-15T07:05:22.456Z,0.9151
2023-04-15T07:06:26.340Z,1.7576
2023-04-15T07:07:30.245Z,1.8354
2023-04-15T07:08:34.165Z,1.3374
2023-04-15T07:09:38.082Z,1.9208
2023-04-15T07:10:42.210Z,2.3589
2023-04-15T07:11:46.123Z,2.1493
2023-04-15T07:12:50.016Z,1.3177
2023-04-15T07:13:53.921Z,1.7233
2023-04-15T07:14:57.805Z,1.0880
2023-04-15T07:16:01.919Z,1.9221
2023-04-15T07:17:05.861Z,2.1341
2023-04-15T07:18:10.029Z,2.5791
2023-04-15T07:19:13.906Z,1.9303
2023-04-15T07:20:17.809Z,2.6691
2023-04-15T07:21:21.721Z,1.9295
2023-04-15T07:22:25.600Z,2.4917
2023-04-15T07:23:29.516Z,2.0270
2023-04-15T07:24:33.376Z,1.6501
2023-04-15T07:25:37.490Z,2.2735
2023-04-15T07:26:41.377Z,2.5774
2023-04-15T07:27:45.277Z,1.9367
2023-04-15T07:28:49.502Z,2.1481
2023-04-15T07:29:53.388Z,2.4517
2023-04-15T07:30:57.313Z,1.7672
2023-04-15T07:32:01.202Z,2.2456
2023-04-15T07:33:05.426Z,1.7790
2023-04-15T07:34:09.294Z,2.0477
2023-04-15T07:35:13.172Z,1.9761
2023-04-15T07:36:17.070Z,1.8656
2023-04-15T07:37:20.959Z,2.5846
2023-04-15T07:38:24.853Z,1.6214
2023-04-15T07:39:28.816Z,2.1630
2023-04-15T07:40:32.676Z,2.2633
2023-04-15T07:41:36.616Z,2.6013
2023-04-15T07:42:41.523Z,1.6485
2023-04-15T07:43:45.654Z,1.8024
2023-04-15T07:44:49.525Z,2.1917
2023-04-15T07:45:53.436Z,1.7045
2023-04-15T07:46:57.293Z,2.1194
2023-04-15T07:48:01.470Z,2.1871
2023-04-15T07:49:05.343Z,2.4260
2023-04-15T07:50:09.230Z,1.2439
2023-04-15T07:51:13.175Z,1.9473
2023-04-15T07:52:17.075Z,2.6427
2023-04-15T07:53:20.973Z,2.0461
2023-04-15T07:54:24.869Z,1.9186
2023-04-15T07:55:28.761Z,2.1743
2023-04-15T07:56:32.675Z,2.0953
2023-04-15T07:57:36.542Z,1.8119
2023-04-15T07:58:40.465Z,1.5902
2023-04-15T07:59:44.324Z,2.4435
2023-04-15T08:00:48.482Z,2.9013
2023-04-15T08:01:52.405Z,1.4419
2023-04-15T08:02:56.675Z,1.9263
2023-04-15T08:04:00.783Z,2.8193
2023-04-15T08:05:04.795Z,1.5638
2023-04-15T08:06:08.720Z,2.2854
2023-04-15T08:07:12.610Z,2.5341
2023-04-15T08:08:16.524Z,3.0873
2023-04-15T08:09:20.412Z,2.2700
2023-04-15T08:10:24.424Z,2.1861
2023-04-15T08:11:28.304Z,1.6469
2023-04-15T08:12:32.236Z,2.1266
2023-04-15T08:13:36.124Z,1.6709
2023-04-15T08:14:40.030Z,2.3785
2023-04-15T08:15:43.939Z,3.1035
2023-04-15T08:16:47.833Z,2.5696
2023-04-15T08:17:51.743Z,2.5902
2023-04-15T08:18:55.634Z,2.2949
2023-04-15T08:19:59.516Z,2.0493
2023-04-15T08:21:03.418Z,2.3076
2023-04-15T08:22:10.934Z,3.1116
2023-04-15T08:23:11.794Z,2.7676
2023-04-15T08:24:15.701Z,2.4280
2023-04-15T08:25:19.856Z,2.6515
2023-04-15T08:26:23.733Z,2.6936
2023-04-15T08:27:27.628Z,3.2451
2023-04-15T08:28:31.725Z,2.3021
2023-04-15T08:29:35.612Z,2.5801
2023-04-15T08:30:39.520Z,2.0212
2023-04-15T08:31:43.422Z,2.7840
2023-04-15T08:32:47.590Z,2.6979
2023-04-15T08:33:51.581Z,2.5555
2023-04-15T08:34:55.497Z,2.1346
2023-04-15T08:35:59.381Z,1.9985
2023-04-15T08:37:03.293Z,2.0756
2023-04-15T08:38:07.199Z,3.1795
2023-04-15T08:39:11.114Z,2.5644
2023-04-15T08:40:15.211Z,2.5104
2023-04-15T08:41:19.094Z,2.1244
2023-04-15T08:42:22.980Z,2.7063
2023-04-15T08:43:27.178Z,2.9707
2023-04-15T08:44:31.061Z,2.4442
2023-04-15T08:45:34.964Z,2.7237
2023-04-15T08:46:38.866Z,2.5307
2023-04-15T08:47:42.760Z,2.4836
2023-04-15T08:48:46.643Z,2.0630
2023-04-15T08:49:50.528Z,2.4075
2023-04-15T08:50:54.404Z,3.0453
2023-04-15T08:51:58.310Z,1.8741
2023-04-15T08:53:02.232Z,2.5622
2023-04-15T08:54:06.159Z,1.8131
2023-04-15T08:55:10.657Z,2.2369
2023-04-15T08:56:14.550Z,2.1923
2023-04-15T08:57:18.440Z,2.4974
2023-04-15T08:58:22.573Z,2.8078
2023-04-15T08:59:26.482Z,1.9871
2023-04-15T09:00:30.373Z,2.7622
2023-04-15T09:01:34.376Z,2.4485
2023-04-15T09:02:38.344Z,2.4239
2023-04-15T09:03:42.447Z,2.3823
2023-04-15T09:04:46.369Z,2.1457
2023-04-15T09:05:52.705Z,2.0869
2023-04-15T09:06:51.791Z,2.1809
2023-04-15T09:07:55.715Z,1.8718
2023-04-15T09:08:59.629Z,2.4316
2023-04-15T09:10:03.784Z,2.5500
2023-04-15T09:11:07.701Z,3.6253
2023-04-15T09:12:11.625Z,2.5681
2023-04-15T09:13:15.738Z,2.6156
2023-04-15T09:14:19.648Z,2.7383
2023-04-15T09:15:23.552Z,2.1286
2023-04-15T09:16:27.501Z,3.2915
2023-04-15T09:17:31.446Z,2.5964
2023-04-15T09:18:35.341Z,2.5609
2023-04-15T09:19:39.280Z,2.2830
2023-04-15T09:20:43.144Z,2.3819
2023-04-15T09:21:47.049Z,2.2540
2023-04-15T09:22:50.945Z,2.8160
2023-04-15T09:23:54.853Z,2.4400
2023-04-15T09:24:58.858Z,2.0338
2023-04-15T09:26:02.748Z,2.1529
2023-04-15T09:27:06.631Z,2.5466
2023-04-15T09:28:10.557Z,2.4439
2023-04-15T09:29:14.398Z,2.2605
2023-04-15T09:30:18.302Z,2.1924
2023-04-15T09:31:22.244Z,2.8256
2023-04-15T09:32:26.562Z,3.1266
2023-04-15T09:33:30.447Z,2.1299
2023-04-15T09:34:34.351Z,3.0087
2023-04-15T09:35:38.271Z,3.6609
2023-04-15T09:36:42.154Z,3.0157
2023-04-15T09:37:46.057Z,3.0107
2023-04-15T09:38:49.943Z,2.1419
2023-04-15T09:39:53.854Z,2.2018
2023-04-15T09:40:57.751Z,3.5767
2023-04-15T09:42:01.725Z,3.3312
2023-04-15T09:43:05.852Z,2.3536
2023-04-15T09:44:09.736Z,2.2357
2023-04-15T09:45:13.860Z,2.9311
2023-04-15T09:46:17.780Z,2.6538
2023-04-15T09:47:21.709Z,2.3207
2023-04-15T09:48:25.571Z,2.0640
2023-04-15T09:49:29.522Z,2.3228
2023-04-15T09:50:33.419Z,2.2689
2023-04-15T09:51:37.323Z,2.1818
2023-04-15T09:52:41.243Z,2.3519
2023-04-15T09:53:45.137Z,2.5596
2023-04-15T09:54:49.200Z,2.3700
2023-04-15T09:55:53.114Z,1.9720
2023-04-15T09:56:57.017Z,1.7526
2023-04-15T09:58:00.913Z,1.9761
2023-04-15T09:59:04.820Z,2.1017
2023-04-15T10:00:08.721Z,2.1696
2023-04-15T10:01:12.613Z,2.0250
2023-04-15T10:02:16.626Z,1.9544
2023-04-15T10:03:20.763Z,1.9379
2023-04-15T10:04:25.021Z,1.8038
2023-04-15T10:05:29.831Z,1.9114
2023-04-15T10:06:34.126Z,2.1287
2023-04-15T10:07:38.040Z,1.7009
2023-04-15T10:08:41.952Z,1.0464
2023-04-15T10:09:46.034Z,1.8339
2023-04-15T10:10:49.948Z,2.0076
2023-04-15T10:11:54.112Z,1.3984
2023-04-15T10:12:58.018Z,2.1781
2023-04-15T10:14:02.344Z,1.9601
2023-04-15T10:15:06.366Z,2.4813
2023-04-15T10:16:10.331Z,1.7062
2023-04-15T10:17:14.254Z,1.6548
2023-04-15T10:18:18.152Z,1.6243
2023-04-15T10:19:22.295Z,2.1566
2023-04-15T10:20:26.209Z,1.8165
2023-04-15T10:21:30.086Z,2.2598
2023-04-15T10:22:33.991Z,1.9461
2023-04-15T10:23:37.887Z,2.1950
2023-04-15T10:24:41.787Z,2.0851
2023-04-15T10:25:45.684Z,2.3195
2023-04-15T10:26:49.618Z,2.5184
2023-04-15T10:27:53.480Z,2.0050
2023-04-15T10:28:58.414Z,2.6281
2023-04-15T10:29:58.126Z,2.1480
2023-04-15T10:31:02.048Z,2.3980
2023-04-15T10:32:05.945Z,1.4278
2023-04-15T10:33:09.826Z,1.3443
2023-04-15T10:34:14.015Z,1.5240
2023-04-15T10:35:17.912Z,2.1083
2023-04-15T10:36:21.796Z,1.8430
2023-04-15T10:37:25.668Z,2.5898
2023-04-15T10:38:29.579Z,2.1437
2023-04-15T10:39:33.464Z,2.4149
2023-04-15T10:40:37.354Z,1.7946
2023-04-15T10:41:41.363Z,2.3151
2023-04-15T10:42:45.270Z,1.7135
2023-04-15T10:43:49.160Z,2.2955
2023-04-15T10:44:53.069Z,2.0817
2023-04-15T10:45:56.954Z,1.7885
2023-04-15T10:47:00.954Z,2.2157
2023-04-15T10:48:04.865Z,2.4483
2023-04-15T10:49:08.750Z,2.2151
2023-04-15T10:50:12.909Z,1.9168
2023-04-15T10:51:16.809Z,2.2370
2023-04-15T10:52:20.710Z,2.4806
2023-04-15T10:53:24.598Z,2.4261
2023-04-15T10:54:28.494Z,2.2407
2023-04-15T10:55:32.514Z,2.5892
2023-04-15T10:56:36.676Z,2.7573
2023-04-15T10:57:40.526Z,2.1191
2023-04-15T10:58:44.457Z,2.9016
2023-04-15T10:59:48.564Z,2.3513
2023-04-15T11:00:52.452Z,2.1589
2023-04-15T11:01:56.738Z,1.9733
2023-04-15T11:03:00.971Z,2.5995
2023-04-15T11:04:05.163Z,2.2001
2023-04-15T11:05:09.218Z,3.1450
2023-04-15T11:06:13.112Z,2.2821
2023-04-15T11:07:17.002Z,2.5643
2023-04-15T11:08:20.914Z,2.4647
2023-04-15T11:09:24.765Z,2.2933
2023-04-15T11:10:28.640Z,2.5444
2023-04-15T11:11:32.767Z,2.0924
2023-04-15T11:12:36.696Z,1.9944
2023-04-15T11:13:40.560Z,2.0445
2023-04-15T11:14:44.684Z,2.1181
2023-04-15T11:15:48.561Z,1.7931
2023-04-15T11:16:52.490Z,2.1760
2023-04-15T11:17:56.428Z,3.4262
2023-04-15T11:19:00.376Z,2.7824
2023-04-15T11:20:04.507Z,2.1066
2023-04-15T11:21:08.395Z,2.4978
2023-04-15T11:22:12.286Z,2.3590
2023-04-15T11:23:16.221Z,1.3384
2023-04-15T11:24:20.095Z,2.2938
2023-04-15T11:25:24.228Z,2.2605
2023-04-15T11:26:28.368Z,2.2454
2023-04-15T11:27:32.236Z,2.0630
2023-04-15T11:28:36.806Z,1.9189
2023-04-15T11:29:36.294Z,2.4991
2023-04-15T11:30:40.236Z,2.6981
2023-04-15T11:31:44.137Z,2.0399
2023-04-15T11:32:48.051Z,1.8649
2023-04-15T11:33:51.958Z,1.7152
2023-04-15T11:34:55.845Z,2.0112
2023-04-15T11:35:59.742Z,1.9583
2023-04-15T11:37:03.629Z,2.7571
2023-04-15T11:38:07.523Z,2.4116
2023-04-15T11:39:11.456Z,2.3015
2023-04-15T11:40:15.391Z,2.7327
2023-04-15T11:41:19.237Z,2.3947
2023-04-15T11:42:23.437Z,2.7521
2023-04-15T11:43:27.329Z,2.1593
2023-04-15T11:44:31.468Z,2.5510
2023-04-15T11:45:35.390Z,1.9369
2023-04-15T11:46:39.252Z,2.4573
2023-04-15T11:47:43.192Z,3.4341
2023-04-15T11:48:47.106Z,2.5591
2023-04-15T11:49:50.993Z,2.3114
2023-04-15T11:50:54.904Z,2.2450
2023-04-15T11:51:58.798Z,2.4832
2023-04-15T11:53:02.707Z,1.8087
2023-04-15T11:54:06.720Z,2.1891
2023-04-15T11:55:10.742Z,1.5406
2023-04-15T11:56:14.622Z,1.8844
2023-04-15T11:57:18.756Z,2.1145
2023-04-15T11:58:22.662Z,2.0358
2023-04-15T11:59:38.948Z,1.7199
2023-04-15T12:00:31.255Z,1.9925
2023-04-15T12:01:35.217Z,1.7928
2023-04-15T12:02:39.227Z,2.6365
2023-04-15T12:03:43.276Z,2.9445
2023-04-15T12:04:47.556Z,2.4455
2023-04-15T12:05:51.426Z,2.3283
2023-04-15T12:06:55.338Z,3.2079
2023-04-15T12:07:59.230Z,2.4807
2023-04-15T12:09:03.474Z,2.3627
2023-04-15T12:10:07.348Z,1.6035
2023-04-15T12:11:11.226Z,2.9389
2023-04-15T12:12:15.361Z,1.8942
2023-04-15T12:13:19.244Z,2.3250
2023-04-15T12:14:23.149Z,2.5743
2023-04-15T12:15:27.034Z,3.3801
2023-04-15T12:16:30.933Z,2.4796
2023-04-15T12:17:52.153Z,2.0172
2023-04-15T12:18:39.310Z,2.2307
2023-04-15T12:19:43.420Z,2.1166
2023-04-15T12:20:47.299Z,2.4439
2023-04-15T12:21:51.202Z,1.7281
2023-04-15T12:22:55.086Z,1.8081
2023-04-15T12:23:59.305Z,1.7366
2023-04-15T12:25:03.203Z,2.8633
2023-04-15T12:26:07.087Z,2.1903
2023-04-15T12:27:11.302Z,2.7794
2023-04-15T12:28:15.189Z,1.8828
2023-04-15T12:29:19.139Z,2.1110
2023-04-15T12:30:22.983Z,2.1051
2023-04-15T12:31:26.911Z,2.2392
2023-04-15T12:32:30.799Z,2.1396
2023-04-15T12:33:34.716Z,1.8882
2023-04-15T12:34:38.586Z,2.2487
2023-04-15T12:35:42.489Z,2.4680
2023-04-15T12:36:46.405Z,1.8878
2023-04-15T12:37:50.273Z,1.9782
2023-04-15T12:38:54.421Z,2.5898
2023-04-15T12:39:58.274Z,1.8438
2023-04-15T12:41:02.168Z,2.8636
2023-04-15T12:42:06.080Z,2.4634
2023-04-15T12:43:09.977Z,2.6005
2023-04-15T12:44:13.864Z,1.9529
2023-04-15T12:45:17.777Z,2.0463
2023-04-15T12:46:21.770Z,2.3469
2023-04-15T12:47:25.756Z,2.3214
2023-04-15T12:48:29.656Z,1.8999
2023-04-15T12:49:33.601Z,1.7658
2023-04-15T12:50:37.508Z,1.8906
2023-04-15T12:51:41.395Z,2.2862
2023-04-15T12:52:45.303Z,2.3874
2023-04-15T12:53:49.413Z,2.7000
2023-04-15T12:54:53.318Z,2.0909
2023-04-15T12:55:57.208Z,1.7495
2023-04-15T12:57:01.297Z,1.4421
2023-04-15T12:58:05.185Z,1.9009
2023-04-15T12:59:09.101Z,3.0917
2023-04-15T13:00:12.995Z,2.0654
2023-04-15T13:01:13.185Z,1.5051
2023-04-15T13:02:17.159Z,1.6496
2023-04-15T13:03:21.196Z,1.5975
2023-04-15T13:04:25.181Z,1.5288
2023-04-15T13:05:29.098Z,1.4992
2023-04-15T13:06:32.984Z,2.3696
2023-04-15T13:07:36.891Z,1.6824
2023-04-15T13:08:47.969Z,1.1225
2023-04-15T13:09:45.591Z,2.7977
2023-04-15T13:10:49.471Z,2.2568
2023-04-15T13:11:53.379Z,2.1063
2023-04-15T13:12:57.269Z,2.0060
2023-04-15T13:14:01.513Z,2.3158
2023-04-15T13:15:05.787Z,1.6766
2023-04-15T13:16:10.064Z,1.5100
2023-04-15T13:17:13.966Z,1.7951
2023-04-15T13:18:17.871Z,1.3998